sensor_id;sensor_type;location;lat;lon;timestamp;P1;durP1;ratioP1;P2;durP2;ratioP2
3718;SDS011;1875;52.492;6.860;2024-03-22T00:00:17;57.42;;;21.45;;
3718;SDS011;1875;52.492;6.860;2024-03-22T00:02:43;51.80;;;23.27;;
3718;SDS011;1875;52.492;6.860;2024-03-22T00:05:10;55.17;;;21.80;;
3718;SDS011;1875;52.492;6.860;2024-03-22T00:07:36;52.10;;;20.77;;
3718;SDS011;1875;52.492;6.860;2024-03-22T00:10:05;53.63;;;20.98;;
3718;SDS011;1875;52.492;6.860;2024-03-22T00:12:32;60.38;;;22.35;;
3718;SDS011;1875;52.492;6.860;2024-03-22T00:14:59;55.42;;;22.25;;
3718;SDS011;1875;52.492;6.860;2024-03-22T00:17:25;54.45;;;21.90;;
3718;SDS011;1875;52.492;6.860;2024-03-22T00:19:51;51.75;;;21.05;;
3718;SDS011;1875;52.492;6.860;2024-03-22T00:22:17;53.08;;;20.42;;
3718;SDS011;1875;52.492;6.860;2024-03-22T00:24:44;47.20;;;19.63;;
3718;SDS011;1875;52.492;6.860;2024-03-22T00:27:12;61.50;;;22.83;;
3718;SDS011;1875;52.492;6.860;2024-03-22T00:29:39;54.38;;;23.85;;
3718;SDS011;1875;52.492;6.860;2024-03-22T00:32:04;55.17;;;22.08;;
3718;SDS011;1875;52.492;6.860;2024-03-22T00:34:33;58.63;;;22.60;;
3718;SDS011;1875;52.492;6.860;2024-03-22T00:36:59;56.17;;;23.58;;
3718;SDS011;1875;52.492;6.860;2024-03-22T00:39:26;55.60;;;21.85;;
3718;SDS011;1875;52.492;6.860;2024-03-22T00:41:51;57.72;;;21.65;;
3718;SDS011;1875;52.492;6.860;2024-03-22T00:44:20;54.97;;;20.83;;
3718;SDS011;1875;52.492;6.860;2024-03-22T00:46:46;55.72;;;20.50;;
3718;SDS011;1875;52.492;6.860;2024-03-22T00:49:13;61.80;;;24.13;;
3718;SDS011;1875;52.492;6.860;2024-03-22T00:51:39;52.75;;;20.00;;
3718;SDS011;1875;52.492;6.860;2024-03-22T00:56:34;62.45;;;22.17;;
3718;SDS011;1875;52.492;6.860;2024-03-22T00:59:01;52.05;;;21.33;;
3718;SDS011;1875;52.492;6.860;2024-03-22T01:01:28;58.40;;;22.17;;
3718;SDS011;1875;52.492;6.860;2024-03-22T01:03:55;56.47;;;22.08;;
3718;SDS011;1875;52.492;6.860;2024-03-22T01:06:21;51.40;;;19.60;;
3718;SDS011;1875;52.492;6.860;2024-03-22T01:08:50;55.50;;;21.60;;
3718;SDS011;1875;52.492;6.860;2024-03-22T01:11:17;51.40;;;22.42;;
3718;SDS011;1875;52.492;6.860;2024-03-22T01:13:44;57.03;;;21.38;;
3718;SDS011;1875;52.492;6.860;2024-03-22T01:16:10;56.90;;;23.83;;
3718;SDS011;1875;52.492;6.860;2024-03-22T01:18:38;57.40;;;20.88;;
3718;SDS011;1875;52.492;6.860;2024-03-22T01:21:04;55.15;;;21.05;;
3718;SDS011;1875;52.492;6.860;2024-03-22T01:23:32;49.50;;;20.77;;
3718;SDS011;1875;52.492;6.860;2024-03-22T01:25:58;53.67;;;21.75;;
3718;SDS011;1875;52.492;6.860;2024-03-22T01:28:24;55.00;;;22.05;;
3718;SDS011;1875;52.492;6.860;2024-03-22T01:30:50;50.58;;;20.30;;
3718;SDS011;1875;52.492;6.860;2024-03-22T01:33:17;57.30;;;21.88;;
3718;SDS011;1875;52.492;6.860;2024-03-22T01:35:44;56.50;;;22.38;;
3718;SDS011;1875;52.492;6.860;2024-03-22T01:38:11;44.65;;;18.15;;
3718;SDS011;1875;52.492;6.860;2024-03-22T01:40:37;47.70;;;19.63;;
3718;SDS011;1875;52.492;6.860;2024-03-22T01:43:04;55.55;;;23.90;;
3718;SDS011;1875;52.492;6.860;2024-03-22T01:45:31;55.75;;;22.30;;
3718;SDS011;1875;52.492;6.860;2024-03-22T01:47:59;50.75;;;21.15;;
3718;SDS011;1875;52.492;6.860;2024-03-22T01:50:25;60.00;;;21.30;;
3718;SDS011;1875;52.492;6.860;2024-03-22T01:52:53;66.85;;;22.83;;
3718;SDS011;1875;52.492;6.860;2024-03-22T01:55:19;57.33;;;20.88;;
3718;SDS011;1875;52.492;6.860;2024-03-22T01:57:46;58.15;;;23.67;;
3718;SDS011;1875;52.492;6.860;2024-03-22T02:00:15;62.63;;;21.80;;
3718;SDS011;1875;52.492;6.860;2024-03-22T02:02:42;50.05;;;20.33;;
3718;SDS011;1875;52.492;6.860;2024-03-22T02:05:11;57.92;;;21.95;;
3718;SDS011;1875;52.492;6.860;2024-03-22T02:07:39;57.95;;;22.73;;
3718;SDS011;1875;52.492;6.860;2024-03-22T02:10:06;54.10;;;20.95;;
3718;SDS011;1875;52.492;6.860;2024-03-22T02:12:36;55.75;;;22.30;;
3718;SDS011;1875;52.492;6.860;2024-03-22T02:15:02;58.67;;;20.95;;
3718;SDS011;1875;52.492;6.860;2024-03-22T02:17:29;58.67;;;22.85;;
3718;SDS011;1875;52.492;6.860;2024-03-22T02:19:55;60.20;;;23.33;;
3718;SDS011;1875;52.492;6.860;2024-03-22T02:22:22;63.58;;;23.25;;
3718;SDS011;1875;52.492;6.860;2024-03-22T02:24:49;60.60;;;23.30;;
3718;SDS011;1875;52.492;6.860;2024-03-22T02:27:16;58.60;;;21.67;;
3718;SDS011;1875;52.492;6.860;2024-03-22T02:29:42;54.78;;;19.95;;
3718;SDS011;1875;52.492;6.860;2024-03-22T02:32:09;60.50;;;22.98;;
3718;SDS011;1875;52.492;6.860;2024-03-22T02:34:35;58.95;;;22.35;;
3718;SDS011;1875;52.492;6.860;2024-03-22T02:37:02;54.08;;;22.98;;
3718;SDS011;1875;52.492;6.860;2024-03-22T02:39:28;58.20;;;24.27;;
3718;SDS011;1875;52.492;6.860;2024-03-22T02:41:56;63.53;;;25.48;;
3718;SDS011;1875;52.492;6.860;2024-03-22T02:44:22;60.20;;;24.05;;
3718;SDS011;1875;52.492;6.860;2024-03-22T02:46:49;59.95;;;23.98;;
3718;SDS011;1875;52.492;6.860;2024-03-22T02:49:16;53.22;;;21.27;;
3718;SDS011;1875;52.492;6.860;2024-03-22T02:51:41;72.03;;;24.35;;
3718;SDS011;1875;52.492;6.860;2024-03-22T02:54:08;56.35;;;20.13;;
3718;SDS011;1875;52.492;6.860;2024-03-22T02:56:34;59.20;;;23.42;;
3718;SDS011;1875;52.492;6.860;2024-03-22T02:59:02;68.70;;;23.10;;
3718;SDS011;1875;52.492;6.860;2024-03-22T03:01:28;64.07;;;23.55;;
3718;SDS011;1875;52.492;6.860;2024-03-22T03:03:55;65.88;;;23.17;;
3718;SDS011;1875;52.492;6.860;2024-03-22T03:06:21;74.10;;;26.50;;
3718;SDS011;1875;52.492;6.860;2024-03-22T03:08:48;61.10;;;22.23;;
3718;SDS011;1875;52.492;6.860;2024-03-22T03:11:14;55.83;;;23.65;;
3718;SDS011;1875;52.492;6.860;2024-03-22T03:13:41;62.08;;;21.52;;
3718;SDS011;1875;52.492;6.860;2024-03-22T03:16:08;60.28;;;21.88;;
3718;SDS011;1875;52.492;6.860;2024-03-22T03:18:35;66.57;;;24.35;;
3718;SDS011;1875;52.492;6.860;2024-03-22T03:21:01;63.17;;;23.25;;
3718;SDS011;1875;52.492;6.860;2024-03-22T03:23:28;63.78;;;22.17;;
3718;SDS011;1875;52.492;6.860;2024-03-22T03:25:54;61.63;;;21.85;;
3718;SDS011;1875;52.492;6.860;2024-03-22T03:28:21;67.20;;;22.38;;
3718;SDS011;1875;52.492;6.860;2024-03-22T03:30:46;74.78;;;24.48;;
3718;SDS011;1875;52.492;6.860;2024-03-22T03:33:15;66.93;;;24.48;;
3718;SDS011;1875;52.492;6.860;2024-03-22T03:35:44;62.05;;;21.77;;
3718;SDS011;1875;52.492;6.860;2024-03-22T03:38:11;67.20;;;22.88;;
3718;SDS011;1875;52.492;6.860;2024-03-22T03:40:37;67.05;;;24.40;;
3718;SDS011;1875;52.492;6.860;2024-03-22T03:43:04;70.55;;;25.90;;
3718;SDS011;1875;52.492;6.860;2024-03-22T03:45:30;70.28;;;28.33;;
3718;SDS011;1875;52.492;6.860;2024-03-22T03:47:57;72.90;;;27.92;;
3718;SDS011;1875;52.492;6.860;2024-03-22T03:50:24;68.80;;;24.23;;
3718;SDS011;1875;52.492;6.860;2024-03-22T03:52:51;71.47;;;26.35;;
3718;SDS011;1875;52.492;6.860;2024-03-22T03:55:17;54.40;;;21.80;;
3718;SDS011;1875;52.492;6.860;2024-03-22T03:57:44;70.18;;;24.35;;
3718;SDS011;1875;52.492;6.860;2024-03-22T04:00:10;79.88;;;28.10;;
3718;SDS011;1875;52.492;6.860;2024-03-22T04:02:37;64.53;;;23.10;;
3718;SDS011;1875;52.492;6.860;2024-03-22T04:05:03;66.57;;;24.80;;
3718;SDS011;1875;52.492;6.860;2024-03-22T04:07:32;66.93;;;25.77;;
3718;SDS011;1875;52.492;6.860;2024-03-22T04:09:58;79.00;;;28.25;;
3718;SDS011;1875;52.492;6.860;2024-03-22T04:12:26;73.43;;;25.30;;
3718;SDS011;1875;52.492;6.860;2024-03-22T04:14:52;63.28;;;22.75;;
3718;SDS011;1875;52.492;6.860;2024-03-22T04:17:19;70.45;;;25.67;;
3718;SDS011;1875;52.492;6.860;2024-03-22T04:19:45;69.10;;;24.08;;
3718;SDS011;1875;52.492;6.860;2024-03-22T04:22:12;68.50;;;26.70;;
3718;SDS011;1875;52.492;6.860;2024-03-22T04:24:39;65.78;;;26.02;;
3718;SDS011;1875;52.492;6.860;2024-03-22T04:27:06;72.47;;;24.92;;
3718;SDS011;1875;52.492;6.860;2024-03-22T04:29:33;77.78;;;29.67;;
3718;SDS011;1875;52.492;6.860;2024-03-22T04:32:00;74.13;;;27.70;;
3718;SDS011;1875;52.492;6.860;2024-03-22T04:34:26;67.38;;;28.00;;
3718;SDS011;1875;52.492;6.860;2024-03-22T04:36:52;76.13;;;25.55;;
3718;SDS011;1875;52.492;6.860;2024-03-22T04:39:19;68.05;;;23.90;;
3718;SDS011;1875;52.492;6.860;2024-03-22T04:41:48;73.05;;;27.10;;
3718;SDS011;1875;52.492;6.860;2024-03-22T04:44:14;80.93;;;30.23;;
3718;SDS011;1875;52.492;6.860;2024-03-22T04:46:40;64.13;;;23.95;;
3718;SDS011;1875;52.492;6.860;2024-03-22T04:49:07;71.55;;;27.27;;
3718;SDS011;1875;52.492;6.860;2024-03-22T04:51:33;66.50;;;26.02;;
3718;SDS011;1875;52.492;6.860;2024-03-22T04:54:00;70.40;;;27.23;;
3718;SDS011;1875;52.492;6.860;2024-03-22T04:56:26;69.47;;;26.77;;
3718;SDS011;1875;52.492;6.860;2024-03-22T04:58:54;72.18;;;27.08;;
3718;SDS011;1875;52.492;6.860;2024-03-22T05:01:20;56.50;;;24.20;;
3718;SDS011;1875;52.492;6.860;2024-03-22T05:03:49;76.57;;;26.63;;
3718;SDS011;1875;52.492;6.860;2024-03-22T05:06:15;64.57;;;25.92;;
3718;SDS011;1875;52.492;6.860;2024-03-22T05:08:41;79.70;;;25.73;;
3718;SDS011;1875;52.492;6.860;2024-03-22T05:11:07;79.75;;;29.88;;
3718;SDS011;1875;52.492;6.860;2024-03-22T05:13:34;76.72;;;26.95;;
3718;SDS011;1875;52.492;6.860;2024-03-22T05:16:01;75.38;;;28.60;;
3718;SDS011;1875;52.492;6.860;2024-03-22T05:18:28;74.07;;;29.83;;
3718;SDS011;1875;52.492;6.860;2024-03-22T05:20:54;83.47;;;33.85;;
3718;SDS011;1875;52.492;6.860;2024-03-22T05:23:21;75.97;;;29.67;;
3718;SDS011;1875;52.492;6.860;2024-03-22T05:25:47;69.25;;;27.65;;
3718;SDS011;1875;52.492;6.860;2024-03-22T05:28:14;69.10;;;27.80;;
3718;SDS011;1875;52.492;6.860;2024-03-22T05:30:40;69.18;;;28.23;;
3718;SDS011;1875;52.492;6.860;2024-03-22T05:33:08;81.68;;;29.98;;
3718;SDS011;1875;52.492;6.860;2024-03-22T05:35:34;77.65;;;32.35;;
3718;SDS011;1875;52.492;6.860;2024-03-22T05:38:01;79.05;;;31.15;;
3718;SDS011;1875;52.492;6.860;2024-03-22T05:40:26;65.30;;;26.33;;
3718;SDS011;1875;52.492;6.860;2024-03-22T05:42:53;76.35;;;29.13;;
3718;SDS011;1875;52.492;6.860;2024-03-22T05:45:19;77.20;;;28.73;;
3718;SDS011;1875;52.492;6.860;2024-03-22T05:47:46;64.13;;;25.83;;
3718;SDS011;1875;52.492;6.860;2024-03-22T05:50:13;81.30;;;34.60;;
3718;SDS011;1875;52.492;6.860;2024-03-22T05:52:40;74.15;;;28.58;;
3718;SDS011;1875;52.492;6.860;2024-03-22T05:55:06;79.57;;;28.67;;
3718;SDS011;1875;52.492;6.860;2024-03-22T05:57:33;69.85;;;27.45;;
3718;SDS011;1875;52.492;6.860;2024-03-22T05:59:59;75.93;;;29.65;;
3718;SDS011;1875;52.492;6.860;2024-03-22T06:02:26;75.25;;;27.77;;
3718;SDS011;1875;52.492;6.860;2024-03-22T06:04:52;72.47;;;28.77;;
3718;SDS011;1875;52.492;6.860;2024-03-22T06:07:20;65.68;;;26.17;;
3718;SDS011;1875;52.492;6.860;2024-03-22T06:09:46;71.28;;;28.75;;
3718;SDS011;1875;52.492;6.860;2024-03-22T06:12:13;64.20;;;27.33;;
3718;SDS011;1875;52.492;6.860;2024-03-22T06:14:39;77.68;;;28.75;;
3718;SDS011;1875;52.492;6.860;2024-03-22T06:17:06;66.90;;;28.63;;
3718;SDS011;1875;52.492;6.860;2024-03-22T06:19:32;65.95;;;28.73;;
3718;SDS011;1875;52.492;6.860;2024-03-22T06:21:59;62.20;;;24.13;;
3718;SDS011;1875;52.492;6.860;2024-03-22T06:24:26;49.55;;;20.88;;
3718;SDS011;1875;52.492;6.860;2024-03-22T06:26:53;68.88;;;30.35;;
3718;SDS011;1875;52.492;6.860;2024-03-22T06:29:19;54.85;;;24.63;;
3718;SDS011;1875;52.492;6.860;2024-03-22T06:31:46;61.85;;;25.50;;
3718;SDS011;1875;52.492;6.860;2024-03-22T06:34:12;52.38;;;22.50;;
3718;SDS011;1875;52.492;6.860;2024-03-22T06:36:39;66.13;;;25.55;;
3718;SDS011;1875;52.492;6.860;2024-03-22T06:39:05;60.70;;;26.05;;
3718;SDS011;1875;52.492;6.860;2024-03-22T06:41:36;61.15;;;26.00;;
3718;SDS011;1875;52.492;6.860;2024-03-22T06:44:03;46.60;;;18.88;;
3718;SDS011;1875;52.492;6.860;2024-03-22T06:46:30;58.58;;;21.75;;
3718;SDS011;1875;52.492;6.860;2024-03-22T06:48:57;62.05;;;23.83;;
3718;SDS011;1875;52.492;6.860;2024-03-22T06:51:24;55.75;;;22.65;;
3718;SDS011;1875;52.492;6.860;2024-03-22T06:53:50;57.63;;;20.55;;
3718;SDS011;1875;52.492;6.860;2024-03-22T06:56:17;51.10;;;19.55;;
3718;SDS011;1875;52.492;6.860;2024-03-22T06:58:44;52.05;;;19.48;;
3718;SDS011;1875;52.492;6.860;2024-03-22T07:01:11;46.47;;;19.33;;
3718;SDS011;1875;52.492;6.860;2024-03-22T07:03:37;50.97;;;20.52;;
3718;SDS011;1875;52.492;6.860;2024-03-22T07:06:03;50.92;;;18.88;;
3718;SDS011;1875;52.492;6.860;2024-03-22T07:08:33;52.20;;;21.88;;
3718;SDS011;1875;52.492;6.860;2024-03-22T07:10:59;54.58;;;23.40;;
3718;SDS011;1875;52.492;6.860;2024-03-22T07:13:27;54.25;;;21.45;;
3718;SDS011;1875;52.492;6.860;2024-03-22T07:15:56;49.38;;;17.75;;
3718;SDS011;1875;52.492;6.860;2024-03-22T07:18:22;60.85;;;22.83;;
3718;SDS011;1875;52.492;6.860;2024-03-22T07:20:49;51.95;;;19.67;;
3718;SDS011;1875;52.492;6.860;2024-03-22T07:23:15;54.20;;;24.77;;
3718;SDS011;1875;52.492;6.860;2024-03-22T07:25:41;43.17;;;17.30;;
3718;SDS011;1875;52.492;6.860;2024-03-22T07:28:11;52.60;;;18.13;;
3718;SDS011;1875;52.492;6.860;2024-03-22T07:30:37;44.42;;;20.63;;
3718;SDS011;1875;52.492;6.860;2024-03-22T07:33:05;54.72;;;21.83;;
3718;SDS011;1875;52.492;6.860;2024-03-22T07:35:34;53.22;;;19.70;;
3718;SDS011;1875;52.492;6.860;2024-03-22T07:38:00;55.60;;;22.75;;
3718;SDS011;1875;52.492;6.860;2024-03-22T07:40:26;47.85;;;18.63;;
3718;SDS011;1875;52.492;6.860;2024-03-22T07:42:52;49.80;;;18.73;;
3718;SDS011;1875;52.492;6.860;2024-03-22T07:45:19;53.22;;;19.08;;
3718;SDS011;1875;52.492;6.860;2024-03-22T07:47:45;56.42;;;20.88;;
3718;SDS011;1875;52.492;6.860;2024-03-22T07:50:14;56.15;;;24.45;;
3718;SDS011;1875;52.492;6.860;2024-03-22T07:52:41;55.33;;;22.52;;
3718;SDS011;1875;52.492;6.860;2024-03-22T07:55:07;50.95;;;18.70;;
3718;SDS011;1875;52.492;6.860;2024-03-22T07:57:34;53.38;;;19.02;;
3718;SDS011;1875;52.492;6.860;2024-03-22T08:00:00;56.08;;;22.77;;
3718;SDS011;1875;52.492;6.860;2024-03-22T08:02:37;49.60;;;20.48;;
3718;SDS011;1875;52.492;6.860;2024-03-22T08:05:03;48.83;;;19.80;;
3718;SDS011;1875;52.492;6.860;2024-03-22T08:07:32;49.45;;;21.40;;
3718;SDS011;1875;52.492;6.860;2024-03-22T08:09:58;54.75;;;21.23;;
3718;SDS011;1875;52.492;6.860;2024-03-22T08:12:27;46.65;;;18.08;;
3718;SDS011;1875;52.492;6.860;2024-03-22T08:14:53;51.83;;;20.33;;
3718;SDS011;1875;52.492;6.860;2024-03-22T08:17:21;49.17;;;19.17;;
3718;SDS011;1875;52.492;6.860;2024-03-22T08:19:47;49.30;;;21.42;;
3718;SDS011;1875;52.492;6.860;2024-03-22T08:22:13;47.13;;;20.05;;
3718;SDS011;1875;52.492;6.860;2024-03-22T08:24:41;47.15;;;21.23;;
3718;SDS011;1875;52.492;6.860;2024-03-22T08:27:07;51.42;;;22.38;;
3718;SDS011;1875;52.492;6.860;2024-03-22T08:29:33;45.45;;;19.15;;
3718;SDS011;1875;52.492;6.860;2024-03-22T08:32:00;51.17;;;20.65;;
3718;SDS011;1875;52.492;6.860;2024-03-22T08:34:29;55.97;;;20.60;;
3718;SDS011;1875;52.492;6.860;2024-03-22T08:36:57;44.75;;;19.20;;
3718;SDS011;1875;52.492;6.860;2024-03-22T08:39:23;41.78;;;19.42;;
3718;SDS011;1875;52.492;6.860;2024-03-22T08:41:52;52.25;;;22.25;;
3718;SDS011;1875;52.492;6.860;2024-03-22T08:44:18;47.65;;;20.77;;
3718;SDS011;1875;52.492;6.860;2024-03-22T08:46:44;47.65;;;20.35;;
3718;SDS011;1875;52.492;6.860;2024-03-22T08:49:11;45.30;;;18.40;;
3718;SDS011;1875;52.492;6.860;2024-03-22T08:51:38;45.08;;;19.15;;
3718;SDS011;1875;52.492;6.860;2024-03-22T08:54:04;42.08;;;18.20;;
3718;SDS011;1875;52.492;6.860;2024-03-22T08:56:31;41.10;;;17.10;;
3718;SDS011;1875;52.492;6.860;2024-03-22T08:58:58;44.75;;;18.67;;
3718;SDS011;1875;52.492;6.860;2024-03-22T09:01:25;45.15;;;17.65;;
3718;SDS011;1875;52.492;6.860;2024-03-22T09:03:52;43.50;;;17.77;;
3718;SDS011;1875;52.492;6.860;2024-03-22T09:06:19;48.58;;;21.88;;
3718;SDS011;1875;52.492;6.860;2024-03-22T09:08:45;47.35;;;20.38;;
3718;SDS011;1875;52.492;6.860;2024-03-22T09:11:12;50.55;;;21.20;;
3718;SDS011;1875;52.492;6.860;2024-03-22T09:13:38;40.50;;;18.13;;
3718;SDS011;1875;52.492;6.860;2024-03-22T09:16:06;46.65;;;18.52;;
3718;SDS011;1875;52.492;6.860;2024-03-22T09:18:32;48.58;;;18.20;;
3718;SDS011;1875;52.492;6.860;2024-03-22T09:20:59;48.42;;;21.05;;
3718;SDS011;1875;52.492;6.860;2024-03-22T09:23:25;44.90;;;18.02;;
3718;SDS011;1875;52.492;6.860;2024-03-22T09:25:51;43.00;;;17.50;;
3718;SDS011;1875;52.492;6.860;2024-03-22T09:28:17;51.38;;;18.38;;
3718;SDS011;1875;52.492;6.860;2024-03-22T09:30:44;44.17;;;15.68;;
3718;SDS011;1875;52.492;6.860;2024-03-22T09:33:11;45.55;;;17.58;;
3718;SDS011;1875;52.492;6.860;2024-03-22T09:35:38;40.58;;;19.45;;
3718;SDS011;1875;52.492;6.860;2024-03-22T09:38:04;48.20;;;20.92;;
3718;SDS011;1875;52.492;6.860;2024-03-22T09:40:31;46.42;;;18.17;;
3718;SDS011;1875;52.492;6.860;2024-03-22T09:42:58;44.15;;;18.42;;
3718;SDS011;1875;52.492;6.860;2024-03-22T09:45:29;38.97;;;16.63;;
3718;SDS011;1875;52.492;6.860;2024-03-22T09:47:57;40.58;;;18.30;;
3718;SDS011;1875;52.492;6.860;2024-03-22T09:50:26;37.28;;;16.15;;
3718;SDS011;1875;52.492;6.860;2024-03-22T09:52:52;44.35;;;16.90;;
3718;SDS011;1875;52.492;6.860;2024-03-22T09:55:21;45.00;;;20.00;;
3718;SDS011;1875;52.492;6.860;2024-03-22T09:57:49;41.17;;;17.95;;
3718;SDS011;1875;52.492;6.860;2024-03-22T10:00:17;35.85;;;16.85;;
3718;SDS011;1875;52.492;6.860;2024-03-22T10:02:44;41.83;;;18.02;;
3718;SDS011;1875;52.492;6.860;2024-03-22T10:05:12;41.30;;;18.48;;
3718;SDS011;1875;52.492;6.860;2024-03-22T10:07:39;46.53;;;18.50;;
3718;SDS011;1875;52.492;6.860;2024-03-22T10:10:07;36.30;;;15.85;;
3718;SDS011;1875;52.492;6.860;2024-03-22T10:12:33;34.25;;;14.07;;
3718;SDS011;1875;52.492;6.860;2024-03-22T10:15:00;34.83;;;14.25;;
3718;SDS011;1875;52.492;6.860;2024-03-22T10:17:26;38.38;;;13.98;;
3718;SDS011;1875;52.492;6.860;2024-03-22T10:19:53;41.95;;;15.07;;
3718;SDS011;1875;52.492;6.860;2024-03-22T10:22:19;37.35;;;15.40;;
3718;SDS011;1875;52.492;6.860;2024-03-22T10:24:48;37.47;;;17.50;;
3718;SDS011;1875;52.492;6.860;2024-03-22T10:27:14;29.23;;;12.05;;
3718;SDS011;1875;52.492;6.860;2024-03-22T10:29:41;33.80;;;11.40;;
3718;SDS011;1875;52.492;6.860;2024-03-22T10:32:07;29.20;;;14.82;;
3718;SDS011;1875;52.492;6.860;2024-03-22T10:34:35;38.17;;;14.60;;
3718;SDS011;1875;52.492;6.860;2024-03-22T10:37:01;24.45;;;11.35;;
3718;SDS011;1875;52.492;6.860;2024-03-22T10:39:29;35.90;;;14.48;;
3718;SDS011;1875;52.492;6.860;2024-03-22T10:41:57;33.85;;;14.18;;
3718;SDS011;1875;52.492;6.860;2024-03-22T10:44:24;34.97;;;13.50;;
3718;SDS011;1875;52.492;6.860;2024-03-22T10:46:50;30.30;;;12.93;;
3718;SDS011;1875;52.492;6.860;2024-03-22T10:49:19;33.53;;;13.93;;
3718;SDS011;1875;52.492;6.860;2024-03-22T10:51:46;30.70;;;13.27;;
3718;SDS011;1875;52.492;6.860;2024-03-22T10:54:16;38.63;;;16.52;;
3718;SDS011;1875;52.492;6.860;2024-03-22T10:56:46;33.10;;;13.98;;
3718;SDS011;1875;52.492;6.860;2024-03-22T10:59:15;35.50;;;14.45;;
3718;SDS011;1875;52.492;6.860;2024-03-22T11:01:45;35.45;;;16.30;;
3718;SDS011;1875;52.492;6.860;2024-03-22T11:04:12;29.88;;;11.80;;
3718;SDS011;1875;52.492;6.860;2024-03-22T11:06:38;30.65;;;12.32;;
3718;SDS011;1875;52.492;6.860;2024-03-22T11:09:05;34.22;;;17.10;;
3718;SDS011;1875;52.492;6.860;2024-03-22T11:11:31;28.73;;;12.18;;
3718;SDS011;1875;52.492;6.860;2024-03-22T11:14:02;31.33;;;12.60;;
3718;SDS011;1875;52.492;6.860;2024-03-22T11:16:30;24.90;;;12.30;;
3718;SDS011;1875;52.492;6.860;2024-03-22T11:18:57;27.25;;;11.30;;
3718;SDS011;1875;52.492;6.860;2024-03-22T11:21:22;29.48;;;11.48;;
3718;SDS011;1875;52.492;6.860;2024-03-22T11:23:49;22.83;;;10.13;;
3718;SDS011;1875;52.492;6.860;2024-03-22T11:26:15;27.95;;;11.13;;
3718;SDS011;1875;52.492;6.860;2024-03-22T11:28:43;26.00;;;12.02;;
3718;SDS011;1875;52.492;6.860;2024-03-22T11:31:09;31.17;;;11.65;;
3718;SDS011;1875;52.492;6.860;2024-03-22T11:33:37;24.55;;;10.70;;
3718;SDS011;1875;52.492;6.860;2024-03-22T11:36:04;24.85;;;11.43;;
3718;SDS011;1875;52.492;6.860;2024-03-22T11:38:30;22.20;;;10.13;;
3718;SDS011;1875;52.492;6.860;2024-03-22T11:40:58;26.20;;;10.98;;
3718;SDS011;1875;52.492;6.860;2024-03-22T11:43:25;23.52;;;10.55;;
3718;SDS011;1875;52.492;6.860;2024-03-22T11:45:53;24.20;;;10.02;;
3718;SDS011;1875;52.492;6.860;2024-03-22T11:48:19;26.27;;;10.52;;
3718;SDS011;1875;52.492;6.860;2024-03-22T11:50:49;21.95;;;8.73;;
3718;SDS011;1875;52.492;6.860;2024-03-22T11:53:15;22.90;;;8.88;;
3718;SDS011;1875;52.492;6.860;2024-03-22T11:55:42;22.85;;;10.13;;
3718;SDS011;1875;52.492;6.860;2024-03-22T11:58:08;26.05;;;10.32;;
3718;SDS011;1875;52.492;6.860;2024-03-22T12:00:35;22.95;;;10.50;;
3718;SDS011;1875;52.492;6.860;2024-03-22T12:03:03;21.38;;;9.13;;
3718;SDS011;1875;52.492;6.860;2024-03-22T12:05:31;21.13;;;10.45;;
3718;SDS011;1875;52.492;6.860;2024-03-22T12:07:58;17.17;;;8.23;;
3718;SDS011;1875;52.492;6.860;2024-03-22T12:10:25;22.88;;;10.23;;
3718;SDS011;1875;52.492;6.860;2024-03-22T12:12:51;20.63;;;9.82;;
3718;SDS011;1875;52.492;6.860;2024-03-22T12:15:19;24.45;;;10.07;;
3718;SDS011;1875;52.492;6.860;2024-03-22T12:17:45;19.80;;;8.85;;
3718;SDS011;1875;52.492;6.860;2024-03-22T12:20:12;21.80;;;8.95;;
3718;SDS011;1875;52.492;6.860;2024-03-22T12:22:40;22.25;;;11.35;;
3718;SDS011;1875;52.492;6.860;2024-03-22T12:25:09;20.52;;;9.80;;
3718;SDS011;1875;52.492;6.860;2024-03-22T12:30:04;18.02;;;9.10;;
3718;SDS011;1875;52.492;6.860;2024-03-22T12:32:31;19.15;;;10.23;;
3718;SDS011;1875;52.492;6.860;2024-03-22T12:34:58;18.17;;;8.50;;
3718;SDS011;1875;52.492;6.860;2024-03-22T12:37:24;19.50;;;9.20;;
3718;SDS011;1875;52.492;6.860;2024-03-22T12:39:51;19.45;;;8.60;;
3718;SDS011;1875;52.492;6.860;2024-03-22T12:42:19;19.08;;;9.98;;
3718;SDS011;1875;52.492;6.860;2024-03-22T12:44:45;16.13;;;7.45;;
3718;SDS011;1875;52.492;6.860;2024-03-22T12:47:11;19.23;;;9.23;;
3718;SDS011;1875;52.492;6.860;2024-03-22T12:49:38;18.17;;;8.45;;
3718;SDS011;1875;52.492;6.860;2024-03-22T12:52:04;21.65;;;9.63;;
3718;SDS011;1875;52.492;6.860;2024-03-22T12:54:32;17.75;;;7.70;;
3718;SDS011;1875;52.492;6.860;2024-03-22T12:56:57;15.10;;;8.05;;
3718;SDS011;1875;52.492;6.860;2024-03-22T12:59:26;13.98;;;7.22;;
3718;SDS011;1875;52.492;6.860;2024-03-22T13:01:52;18.00;;;9.82;;
3718;SDS011;1875;52.492;6.860;2024-03-22T13:04:19;18.08;;;7.45;;
3718;SDS011;1875;52.492;6.860;2024-03-22T13:06:45;15.88;;;7.22;;
3718;SDS011;1875;52.492;6.860;2024-03-22T13:09:13;14.25;;;7.47;;
3718;SDS011;1875;52.492;6.860;2024-03-22T13:11:39;17.23;;;9.18;;
3718;SDS011;1875;52.492;6.860;2024-03-22T13:14:06;17.27;;;8.05;;
3718;SDS011;1875;52.492;6.860;2024-03-22T13:16:33;14.02;;;7.45;;
3718;SDS011;1875;52.492;6.860;2024-03-22T13:19:00;15.00;;;7.50;;
3718;SDS011;1875;52.492;6.860;2024-03-22T13:21:26;13.90;;;6.07;;
3718;SDS011;1875;52.492;6.860;2024-03-22T13:23:53;14.07;;;6.18;;
3718;SDS011;1875;52.492;6.860;2024-03-22T13:26:19;12.18;;;6.70;;
3718;SDS011;1875;52.492;6.860;2024-03-22T13:28:46;14.25;;;6.82;;
3718;SDS011;1875;52.492;6.860;2024-03-22T13:31:12;11.50;;;5.43;;
3718;SDS011;1875;52.492;6.860;2024-03-22T13:33:40;10.32;;;5.47;;
3718;SDS011;1875;52.492;6.860;2024-03-22T13:36:06;11.13;;;5.57;;
3718;SDS011;1875;52.492;6.860;2024-03-22T13:38:33;13.93;;;6.50;;
3718;SDS011;1875;52.492;6.860;2024-03-22T13:40:59;11.30;;;5.72;;
3718;SDS011;1875;52.492;6.860;2024-03-22T13:43:29;9.63;;;5.10;;
3718;SDS011;1875;52.492;6.860;2024-03-22T13:45:55;11.98;;;4.82;;
3718;SDS011;1875;52.492;6.860;2024-03-22T13:48:22;8.05;;;4.00;;
3718;SDS011;1875;52.492;6.860;2024-03-22T13:50:51;9.07;;;3.40;;
3718;SDS011;1875;52.492;6.860;2024-03-22T13:53:19;8.00;;;3.83;;
3718;SDS011;1875;52.492;6.860;2024-03-22T13:55:47;7.78;;;4.50;;
3718;SDS011;1875;52.492;6.860;2024-03-22T13:58:14;10.00;;;4.97;;
3718;SDS011;1875;52.492;6.860;2024-03-22T14:00:40;7.88;;;4.30;;
3718;SDS011;1875;52.492;6.860;2024-03-22T14:03:07;7.22;;;4.30;;
3718;SDS011;1875;52.492;6.860;2024-03-22T14:05:33;6.88;;;3.97;;
3718;SDS011;1875;52.492;6.860;2024-03-22T14:08:02;8.43;;;3.97;;
3718;SDS011;1875;52.492;6.860;2024-03-22T14:10:29;8.00;;;4.15;;
3718;SDS011;1875;52.492;6.860;2024-03-22T14:12:56;6.53;;;3.30;;
3718;SDS011;1875;52.492;6.860;2024-03-22T14:15:22;7.43;;;3.88;;
3718;SDS011;1875;52.492;6.860;2024-03-22T14:17:51;5.35;;;3.15;;
3718;SDS011;1875;52.492;6.860;2024-03-22T14:20:17;6.90;;;3.45;;
3718;SDS011;1875;52.492;6.860;2024-03-22T14:22:45;7.47;;;3.53;;
3718;SDS011;1875;52.492;6.860;2024-03-22T14:25:12;5.95;;;3.75;;
3718;SDS011;1875;52.492;6.860;2024-03-22T14:27:39;5.32;;;2.97;;
3718;SDS011;1875;52.492;6.860;2024-03-22T14:30:07;4.10;;;2.03;;
3718;SDS011;1875;52.492;6.860;2024-03-22T14:32:36;5.53;;;2.97;;
3718;SDS011;1875;52.492;6.860;2024-03-22T14:35:02;11.20;;;3.33;;
3718;SDS011;1875;52.492;6.860;2024-03-22T14:37:30;8.30;;;4.65;;
3718;SDS011;1875;52.492;6.860;2024-03-22T14:39:56;7.32;;;3.40;;
3718;SDS011;1875;52.492;6.860;2024-03-22T14:42:25;9.02;;;3.17;;
3718;SDS011;1875;52.492;6.860;2024-03-22T14:44:51;19.08;;;6.65;;
3718;SDS011;1875;52.492;6.860;2024-03-22T14:47:18;13.50;;;6.75;;
3718;SDS011;1875;52.492;6.860;2024-03-22T14:49:44;15.85;;;4.95;;
3718;SDS011;1875;52.492;6.860;2024-03-22T14:52:11;15.18;;;4.50;;